Portada
METAR-TAF:

METAR-TAF

Aeropuertos :

Aeropuerto Internacional de Kosrae

Kosrae, Micronesia

latitud: 05-21N, longitud: 162-57E, altitud: 3 m

Observación

El informe se hizo hace 16 horas y 20 minutos, a las 22:50 UTC
Viento 8 kt del suroeste
Temperatura 30°C
Humedad 79%
Presión 1012 hPa
Visibilidad: 16.1 km
Nubes dispersas a una altura de 1900 ft
Cielo nuboso a una altura de 30000 ft

METAR: PTSA 212250Z 23008KT 10SM SCT019 BKN300 30/26 A2987

Hora: 02:10 (15:10 UTC)

Pronóstico

El informe se hizo hace 15 horas y 31 minutos, a las 23:39 UTC
Pronóstico válido del 22 a las 00 UTC al 22 a las 24 UTC
Viento 10 kt del oeste-suroeste
Visibilidad: 10 km
Nubes dispersas a una altura de 1900 ft
Cielo nuboso a una altura de 13000 ft
chaparrones en las proximidades

TAF: PTSA 212339Z 2200/2224 25010KT P6SM VCSH SCT019 BKN130

Observaciones y pronósticos meteorológicos de más de 4000 aeropuertos (mensajes METAR y TAF).

Los puntos amarillos y rojos representan las estaciones disponibles.

Ponga el ratón en el punto deseado para ver el nombre de la estación.

Haga clic para ver las observaciones y los pronósticos meteorológicos.

Para cambiar el mapa : haga clic en los botones verdes con una cruz de color negro para hacer un zoom, en el botón verde con un guión para alejar o en las flechas verdes para mapas adyacentes.


METAR-TAF: